createdAt,value
2017-11-23T00:00:35.257Z,24.27
2017-11-23T00:03:02.727Z,28.40
2017-11-23T00:05:30.220Z,22.53
2017-11-23T00:07:57.687Z,25.47
2017-11-23T00:10:25.179Z,22.77
2017-11-23T00:12:52.647Z,32.77
2017-11-23T00:15:20.110Z,25.80
2017-11-23T00:17:47.619Z,24.90
2017-11-23T00:20:16.220Z,22.93
2017-11-23T00:22:43.696Z,22.67
2017-11-23T00:25:11.312Z,21.50
2017-11-23T00:27:38.791Z,22.20
2017-11-23T00:30:06.312Z,22.87
2017-11-23T00:32:33.825Z,28.00
2017-11-23T00:35:01.318Z,20.83
2017-11-23T00:37:28.846Z,20.70
2017-11-23T00:39:56.311Z,23.33
2017-11-23T00:42:27.620Z,22.03
2017-11-23T00:44:55.134Z,15.73
2017-11-23T00:47:22.581Z,22.07
2017-11-23T00:49:50.086Z,15.33
2017-11-23T00:52:18.602Z,12.40
2017-11-23T00:54:46.131Z,16.63
2017-11-23T00:57:13.601Z,20.73
2017-11-23T00:59:41.064Z,23.57
2017-11-23T01:02:08.604Z,21.73
2017-11-23T01:04:36.087Z,21.80
2017-11-23T01:07:03.565Z,14.87
2017-11-23T01:09:31.032Z,13.37
2017-11-23T01:11:58.490Z,17.27
2017-11-23T01:14:25.950Z,16.70
2017-11-23T01:16:53.400Z,18.00
2017-11-23T01:19:20.905Z,14.70
2017-11-23T01:21:49.085Z,14.00
2017-11-23T01:24:16.566Z,16.13
2017-11-23T01:26:44.028Z,15.30
2017-11-23T01:29:11.492Z,12.63
2017-11-23T01:31:38.960Z,17.57
2017-11-23T01:34:06.434Z,20.10
2017-11-23T01:36:36.812Z,18.03
2017-11-23T01:39:04.289Z,19.50
2017-11-23T01:41:31.776Z,20.43
2017-11-23T01:43:59.249Z,16.50
2017-11-23T01:46:26.713Z,16.53
2017-11-23T01:48:54.643Z,17.90
2017-11-23T01:51:22.094Z,14.93
2017-11-23T01:53:49.573Z,14.70
2017-11-23T01:56:17.940Z,13.90
2017-11-23T01:58:45.412Z,19.37
2017-11-23T02:01:12.896Z,14.40
2017-11-23T02:03:40.345Z,17.40
2017-11-23T02:06:07.848Z,22.87
2017-11-23T02:08:35.305Z,25.60
2017-11-23T02:11:02.769Z,28.70
2017-11-23T02:13:30.257Z,33.33
2017-11-23T02:15:57.729Z,31.87
2017-11-23T02:18:26.078Z,30.20
2017-11-23T02:20:53.618Z,39.67
2017-11-23T02:23:21.080Z,47.63
2017-11-23T02:25:48.626Z,58.80
2017-11-23T02:28:18.171Z,55.40
2017-11-23T02:30:47.846Z,70.17
2017-11-23T02:33:16.027Z,74.70
2017-11-23T02:35:43.533Z,73.53
2017-11-23T02:38:10.986Z,89.53
2017-11-23T02:40:38.465Z,110.30
2017-11-23T02:43:05.953Z,102.63
2017-11-23T02:45:33.417Z,108.83
2017-11-23T02:48:00.890Z,94.60
2017-11-23T02:50:28.408Z,93.80
2017-11-23T02:52:55.872Z,91.30
2017-11-23T02:55:23.363Z,98.13
2017-11-23T02:57:50.964Z,94.97
2017-11-23T03:00:18.435Z,89.03
2017-11-23T03:02:46.164Z,84.83
2017-11-23T03:05:13.632Z,83.53
2017-11-23T03:07:41.268Z,102.47
2017-11-23T03:10:08.745Z,115.73
2017-11-23T03:12:36.210Z,124.60
2017-11-23T03:15:03.690Z,104.50
2017-11-23T03:17:31.177Z,113.10
2017-11-23T03:19:59.372Z,108.20
2017-11-23T03:22:26.849Z,106.73
2017-11-23T03:24:54.297Z,97.13
2017-11-23T03:27:21.760Z,84.27
2017-11-23T03:29:49.224Z,86.20
2017-11-23T03:32:16.702Z,123.53
2017-11-23T03:34:44.168Z,92.93
2017-11-23T03:37:11.625Z,82.03
2017-11-23T03:39:39.095Z,89.27
2017-11-23T03:42:06.586Z,88.40
2017-11-23T03:44:42.027Z,86.20
2017-11-23T03:47:09.485Z,82.00
2017-11-23T03:49:36.955Z,96.53
2017-11-23T03:52:04.433Z,91.07
2017-11-23T03:54:31.929Z,97.63
2017-11-23T03:56:59.390Z,95.60
2017-11-23T03:59:26.868Z,91.40
2017-11-23T04:01:54.325Z,109.67
2017-11-23T04:04:21.821Z,93.37
2017-11-23T04:06:49.256Z,87.03
2017-11-23T04:09:18.169Z,98.23
2017-11-23T04:11:45.653Z,91.97
2017-11-23T04:14:13.114Z,91.33
2017-11-23T04:16:40.643Z,96.97
2017-11-23T04:19:08.223Z,103.70
2017-11-23T04:21:35.692Z,96.73
2017-11-23T04:24:03.187Z,100.53
2017-11-23T04:26:30.983Z,114.67
2017-11-23T04:28:58.565Z,100.40
2017-11-23T04:31:26.050Z,91.53
2017-11-23T04:33:53.508Z,103.53
2017-11-23T04:36:21.005Z,103.37
2017-11-23T04:38:48.460Z,81.30
2017-11-23T04:41:15.925Z,82.27
2017-11-23T04:43:43.433Z,86.93
2017-11-23T04:46:10.890Z,87.43
2017-11-23T04:48:38.448Z,91.10
2017-11-23T04:51:05.929Z,92.53
2017-11-23T04:53:33.376Z,91.73
2017-11-23T04:56:00.841Z,98.07
2017-11-23T04:58:28.304Z,90.63
2017-11-23T05:00:55.755Z,78.17
2017-11-23T05:03:23.236Z,82.23
2017-11-23T05:05:50.694Z,79.60
2017-11-23T05:08:18.151Z,69.53
2017-11-23T05:10:45.630Z,74.47
2017-11-23T05:13:13.093Z,67.77
2017-11-23T05:15:40.569Z,68.23
2017-11-23T05:18:08.063Z,56.00
2017-11-23T05:20:35.520Z,77.13
2017-11-23T05:23:03.011Z,65.70
2017-11-23T05:25:30.467Z,61.27
2017-11-23T05:27:57.957Z,62.93
2017-11-23T05:30:25.496Z,67.13
2017-11-23T05:32:53.005Z,65.47
2017-11-23T05:35:20.468Z,73.33
2017-11-23T05:37:47.975Z,69.20
2017-11-23T05:40:17.409Z,64.47
2017-11-23T05:42:45.120Z,59.67
2017-11-23T05:45:12.630Z,70.73
2017-11-23T05:47:40.104Z,67.63
2017-11-23T05:50:07.599Z,68.63
2017-11-23T05:52:35.064Z,66.10
2017-11-23T05:55:02.526Z,66.60
2017-11-23T05:57:29.980Z,60.00
2017-11-23T05:59:57.431Z,49.60
2017-11-23T06:02:24.940Z,61.50
2017-11-23T06:04:52.400Z,67.77
2017-11-23T06:07:19.860Z,65.23
2017-11-23T06:09:48.753Z,62.80
2017-11-23T06:12:16.224Z,52.73
2017-11-23T06:14:43.681Z,55.33
2017-11-23T06:17:11.756Z,59.63
2017-11-23T06:19:39.230Z,49.60
2017-11-23T06:22:06.708Z,61.73
2017-11-23T06:24:34.201Z,47.50
2017-11-23T06:27:01.662Z,52.77
2017-11-23T06:29:29.102Z,46.90
2017-11-23T06:31:56.565Z,53.57
2017-11-23T06:34:24.018Z,52.03
2017-11-23T06:36:51.481Z,57.63
2017-11-23T06:39:18.938Z,47.00
2017-11-23T06:41:46.396Z,49.70
2017-11-23T06:44:14.840Z,45.03
2017-11-23T06:46:42.309Z,45.17
2017-11-23T06:49:09.768Z,54.40
2017-11-23T06:51:37.228Z,56.07
2017-11-23T06:54:04.691Z,43.90
2017-11-23T06:56:33.523Z,45.00
2017-11-23T06:59:01.950Z,47.60
2017-11-23T07:01:29.421Z,45.23
2017-11-23T07:03:56.911Z,39.33
2017-11-23T07:06:24.425Z,47.37
2017-11-23T07:08:51.893Z,47.97
2017-11-23T07:11:19.347Z,45.47
2017-11-23T07:13:46.808Z,51.17
2017-11-23T07:16:15.180Z,54.40
2017-11-23T07:18:42.792Z,46.43
2017-11-23T07:21:10.260Z,46.57
2017-11-23T07:23:37.716Z,46.07
2017-11-23T07:26:05.533Z,44.97
2017-11-23T07:28:36.729Z,51.73
2017-11-23T07:31:04.177Z,44.97
2017-11-23T07:33:31.641Z,49.80
2017-11-23T07:35:59.097Z,47.80
2017-11-23T07:38:26.597Z,44.77
2017-11-23T07:40:54.045Z,45.90
2017-11-23T07:43:21.508Z,55.13
2017-11-23T07:45:48.981Z,52.60
2017-11-23T07:48:16.443Z,49.67
2017-11-23T07:50:43.968Z,42.30
2017-11-23T07:53:11.432Z,48.70
2017-11-23T07:55:38.878Z,46.37
2017-11-23T07:58:06.421Z,50.37
2017-11-23T08:00:33.875Z,44.47
2017-11-23T08:03:01.330Z,49.63
2017-11-23T08:05:28.796Z,45.20
2017-11-23T08:07:56.249Z,48.53
2017-11-23T08:10:23.708Z,50.60
2017-11-23T08:12:51.196Z,43.37
2017-11-23T08:15:19.448Z,46.90
2017-11-23T08:17:46.920Z,43.17
2017-11-23T08:20:14.456Z,40.73
2017-11-23T08:22:42.168Z,47.33
2017-11-23T08:25:09.636Z,47.23
2017-11-23T08:27:37.153Z,41.97
2017-11-23T08:30:04.744Z,48.53
2017-11-23T08:32:37.919Z,39.93
2017-11-23T08:35:05.392Z,43.70
2017-11-23T08:37:32.865Z,46.97
2017-11-23T08:40:00.364Z,41.83
2017-11-23T08:42:29.856Z,43.00
2017-11-23T08:44:57.342Z,40.20
2017-11-23T08:47:24.804Z,53.07
2017-11-23T08:49:52.273Z,42.73
2017-11-23T08:52:19.757Z,40.80
2017-11-23T08:54:52.737Z,45.23
2017-11-23T08:57:20.189Z,40.30
2017-11-23T08:59:47.661Z,54.10
2017-11-23T09:02:15.377Z,35.33
2017-11-23T09:04:42.849Z,40.00
2017-11-23T09:07:10.330Z,41.13
2017-11-23T09:09:37.842Z,45.63
2017-11-23T09:12:05.302Z,47.83
2017-11-23T09:14:32.833Z,39.20
2017-11-23T09:17:00.348Z,33.70
2017-11-23T09:19:27.834Z,42.30
2017-11-23T09:21:55.296Z,39.60
2017-11-23T09:24:22.790Z,44.10
2017-11-23T09:26:50.245Z,40.00
2017-11-23T09:29:17.712Z,42.27
2017-11-23T09:31:45.207Z,44.00
2017-11-23T09:34:12.661Z,42.40
2017-11-23T09:36:40.141Z,36.13
2017-11-23T09:39:07.654Z,40.30
2017-11-23T09:41:35.122Z,40.33
2017-11-23T09:44:02.617Z,43.27
2017-11-23T09:46:30.346Z,38.90
2017-11-23T09:48:57.836Z,42.63
2017-11-23T09:51:25.313Z,35.63
2017-11-23T09:53:52.821Z,48.50
2017-11-23T09:56:20.315Z,42.30
2017-11-23T09:58:47.801Z,41.53
2017-11-23T10:01:15.240Z,40.03
2017-11-23T10:03:42.700Z,43.33
2017-11-23T10:06:10.165Z,42.47
2017-11-23T10:08:37.632Z,43.20
2017-11-23T10:11:05.099Z,42.10
2017-11-23T10:13:32.578Z,44.00
2017-11-23T10:16:00.047Z,44.20
2017-11-23T10:18:27.759Z,48.03
2017-11-23T10:20:55.353Z,46.73
2017-11-23T10:23:22.797Z,52.80
2017-11-23T10:25:50.264Z,46.83
2017-11-23T10:28:17.854Z,45.17
2017-11-23T10:30:45.309Z,44.23
2017-11-23T10:33:12.784Z,41.93
2017-11-23T10:35:40.270Z,42.43
2017-11-23T10:38:07.730Z,41.93
2017-11-23T10:40:36.094Z,41.43
2017-11-23T10:43:03.587Z,48.03
2017-11-23T10:45:31.071Z,42.90
2017-11-23T10:47:58.526Z,44.10
2017-11-23T10:50:26.434Z,44.93
2017-11-23T10:52:53.884Z,48.73
2017-11-23T10:55:21.361Z,52.63
2017-11-23T10:57:48.803Z,46.93
2017-11-23T11:00:16.298Z,55.70
2017-11-23T11:02:43.790Z,61.60
2017-11-23T11:05:11.244Z,56.80
2017-11-23T11:07:38.706Z,62.90
2017-11-23T11:10:06.180Z,55.97
2017-11-23T11:12:33.634Z,100.90
2017-11-23T11:15:01.095Z,77.37
2017-11-23T11:17:28.571Z,121.67
2017-11-23T11:19:56.060Z,100.03
2017-11-23T11:22:23.531Z,77.07
2017-11-23T11:24:50.996Z,69.60
2017-11-23T11:27:18.460Z,75.60
2017-11-23T11:29:45.929Z,61.00
2017-11-23T11:32:13.423Z,61.50
2017-11-23T11:34:40.928Z,64.30
2017-11-23T11:37:08.405Z,55.57
2017-11-23T11:39:36.795Z,64.60
2017-11-23T11:42:04.268Z,64.00
2017-11-23T11:44:31.737Z,64.47
2017-11-23T11:46:59.257Z,75.70
2017-11-23T11:49:26.797Z,74.60
2017-11-23T11:51:54.296Z,74.20
2017-11-23T11:54:21.802Z,67.83
2017-11-23T11:56:49.328Z,62.27
2017-11-23T11:59:16.798Z,65.53
2017-11-23T12:01:44.304Z,63.37
2017-11-23T12:04:11.788Z,62.33
2017-11-23T12:06:39.276Z,61.40
2017-11-23T12:09:06.802Z,67.53
2017-11-23T12:11:34.307Z,66.37
2017-11-23T12:14:13.604Z,57.67
2017-11-23T12:16:52.731Z,67.93
2017-11-23T12:19:21.260Z,64.60
2017-11-23T12:21:54.598Z,68.80
2017-11-23T12:24:31.243Z,66.10
2017-11-23T12:26:58.761Z,69.87
2017-11-23T12:29:37.913Z,67.07
2017-11-23T12:32:05.406Z,76.17
2017-11-23T12:34:33.609Z,73.50
2017-11-23T12:37:01.144Z,70.27
2017-11-23T12:39:28.640Z,75.07
2017-11-23T12:41:56.109Z,78.97
2017-11-23T12:44:23.582Z,80.60
2017-11-23T12:46:51.050Z,79.23
2017-11-23T12:49:18.911Z,79.63
2017-11-23T12:51:46.378Z,80.40
2017-11-23T12:54:14.041Z,78.80
2017-11-23T12:56:41.545Z,81.33
2017-11-23T12:59:09.127Z,81.43
2017-11-23T13:01:36.581Z,76.83
2017-11-23T13:04:04.069Z,73.77
2017-11-23T13:06:31.912Z,80.50
2017-11-23T13:08:59.396Z,68.93
2017-11-23T13:11:27.057Z,69.63
2017-11-23T13:13:54.579Z,86.83
2017-11-23T13:16:22.064Z,71.77
2017-11-23T13:18:49.541Z,69.47
2017-11-23T13:21:17.381Z,70.60
2017-11-23T13:23:45.655Z,73.43
2017-11-23T13:26:13.130Z,68.33
2017-11-23T13:28:40.617Z,67.43
2017-11-23T13:31:08.082Z,65.73
2017-11-23T13:33:35.600Z,70.43
2017-11-23T13:36:03.086Z,73.77
2017-11-23T13:38:30.753Z,73.60
2017-11-23T13:40:58.261Z,81.57
2017-11-23T13:43:25.751Z,66.43
2017-11-23T13:45:53.241Z,81.53
2017-11-23T13:48:20.693Z,75.03
2017-11-23T13:50:48.152Z,73.50
2017-11-23T13:53:15.640Z,70.33
2017-11-23T13:55:43.097Z,73.03
2017-11-23T13:58:10.628Z,71.60
2017-11-23T14:00:38.135Z,59.83
2017-11-23T14:03:05.643Z,71.77
2017-11-23T14:05:33.139Z,72.77
2017-11-23T14:08:00.675Z,68.30
2017-11-23T14:10:28.141Z,79.57
2017-11-23T14:12:56.509Z,80.33
2017-11-23T14:15:23.986Z,61.23
2017-11-23T14:17:51.476Z,72.00
2017-11-23T14:20:18.918Z,71.43
2017-11-23T14:22:46.394Z,71.83
2017-11-23T14:25:13.863Z,66.00
2017-11-23T14:27:41.364Z,80.90
2017-11-23T14:30:08.828Z,72.30
2017-11-23T14:32:36.277Z,73.87
2017-11-23T14:35:03.772Z,66.27
2017-11-23T14:37:31.234Z,66.77
2017-11-23T14:39:58.703Z,72.37
2017-11-23T14:42:34.072Z,63.00
2017-11-23T14:45:01.589Z,84.43
2017-11-23T14:47:29.079Z,94.33
2017-11-23T14:49:56.587Z,80.13
2017-11-23T14:52:24.071Z,71.87
2017-11-23T14:54:51.551Z,62.03
2017-11-23T14:57:19.058Z,75.70
2017-11-23T14:59:46.529Z,75.17
2017-11-23T15:02:14.221Z,76.30
2017-11-23T15:04:41.721Z,67.90
2017-11-23T15:07:09.224Z,71.30
2017-11-23T15:09:36.673Z,61.27
2017-11-23T15:12:04.172Z,69.37
2017-11-23T15:14:31.738Z,74.00
2017-11-23T15:16:59.203Z,76.33
2017-11-23T15:19:26.708Z,63.23
2017-11-23T15:21:54.181Z,78.77
2017-11-23T15:24:21.760Z,96.13
2017-11-23T15:26:49.259Z,158.57
2017-11-23T15:29:16.719Z,90.13
2017-11-23T15:31:44.226Z,86.20
2017-11-23T15:34:11.706Z,95.30
2017-11-23T15:36:39.294Z,75.50
2017-11-23T15:39:06.781Z,81.77
2017-11-23T15:41:34.356Z,82.97
2017-11-23T15:44:02.326Z,67.20
2017-11-23T15:46:29.812Z,64.83
2017-11-23T15:48:57.348Z,80.00
2017-11-23T15:51:24.875Z,71.70
2017-11-23T15:53:52.359Z,71.15
2017-11-23T15:56:19.897Z,72.53
2017-11-23T15:58:47.361Z,73.90
2017-11-23T16:01:14.834Z,71.63
2017-11-23T16:03:42.334Z,74.27
2017-11-23T16:06:09.805Z,74.77
2017-11-23T16:08:37.258Z,63.53
2017-11-23T16:11:04.743Z,71.20
2017-11-23T16:13:32.232Z,69.43
2017-11-23T16:15:59.703Z,66.33
2017-11-23T16:18:30.349Z,74.40
2017-11-23T16:20:57.806Z,74.10
2017-11-23T16:23:25.268Z,80.87
2017-11-23T16:25:52.721Z,78.40
2017-11-23T16:28:20.258Z,71.07
2017-11-23T16:30:47.730Z,70.27
2017-11-23T16:33:15.549Z,73.30
2017-11-23T16:35:44.225Z,66.73
2017-11-23T16:38:12.606Z,71.43
2017-11-23T16:40:57.738Z,68.60
2017-11-23T16:43:26.936Z,66.10
2017-11-23T16:46:04.977Z,70.90
2017-11-23T16:48:47.663Z,79.67
2017-11-23T16:54:27.909Z,67.20
2017-11-23T16:57:00.865Z,64.23
2017-11-23T16:59:33.958Z,67.17
2017-11-23T17:02:06.919Z,70.57
2017-11-23T17:04:44.868Z,69.90
2017-11-23T17:07:14.853Z,67.27
2017-11-23T17:09:48.016Z,62.70
2017-11-23T17:12:25.791Z,64.63
2017-11-23T17:14:58.875Z,72.87
2017-11-23T17:17:36.296Z,72.90
2017-11-23T17:20:03.761Z,68.93
2017-11-23T17:22:31.232Z,69.43
2017-11-23T17:24:58.694Z,71.40
2017-11-23T17:27:26.152Z,76.10
2017-11-23T17:29:53.673Z,64.93
2017-11-23T17:32:21.159Z,71.67
2017-11-23T17:34:48.607Z,63.80
2017-11-23T17:37:16.100Z,68.53
2017-11-23T17:39:43.560Z,72.30
2017-11-23T17:42:11.067Z,65.77
2017-11-23T17:44:38.555Z,70.10
2017-11-23T17:47:06.014Z,67.13
2017-11-23T17:49:34.389Z,65.07
2017-11-23T17:52:01.880Z,73.93
2017-11-23T17:54:29.821Z,76.83
2017-11-23T17:56:57.286Z,75.83
2017-11-23T17:59:24.763Z,76.43
2017-11-23T18:01:52.275Z,74.90
2017-11-23T18:04:19.764Z,70.17
2017-11-23T18:06:47.558Z,77.70
2017-11-23T18:09:16.063Z,70.03
2017-11-23T18:11:43.547Z,74.07
2017-11-23T18:14:11.000Z,65.27
2017-11-23T18:16:38.474Z,70.50
2017-11-23T18:19:05.938Z,82.50
2017-11-23T18:21:33.391Z,74.47
2017-11-23T18:24:00.867Z,70.10
2017-11-23T18:26:28.328Z,85.07
2017-11-23T18:28:55.807Z,81.30
2017-11-23T18:31:23.279Z,81.20
2017-11-23T18:33:50.749Z,79.17
2017-11-23T18:36:18.214Z,78.03
2017-11-23T18:38:45.670Z,86.50
2017-11-23T18:41:13.141Z,75.07
2017-11-23T18:43:40.597Z,72.67
2017-11-23T18:46:08.090Z,82.77
2017-11-23T18:48:35.580Z,84.60
2017-11-23T18:51:03.101Z,74.50
2017-11-23T18:53:30.596Z,73.20
2017-11-23T18:55:58.155Z,78.00
2017-11-23T18:58:25.646Z,69.37
2017-11-23T19:00:53.089Z,81.03
2017-11-23T19:03:20.597Z,72.43
2017-11-23T19:05:48.124Z,71.00
2017-11-23T19:08:15.700Z,72.70
2017-11-23T19:10:43.156Z,72.63
2017-11-23T19:13:10.619Z,85.50
2017-11-23T19:15:38.081Z,81.23
2017-11-23T19:18:05.567Z,81.57
2017-11-23T19:20:33.038Z,74.40
2017-11-23T19:23:00.524Z,82.40
2017-11-23T19:25:28.000Z,93.53
2017-11-23T19:27:55.497Z,84.47
2017-11-23T19:30:23.119Z,85.87
2017-11-23T19:32:50.581Z,89.10
2017-11-23T19:35:18.038Z,101.60
2017-11-23T19:37:45.518Z,110.30
2017-11-23T19:40:12.979Z,103.50
2017-11-23T19:42:40.471Z,110.27
2017-11-23T19:45:07.938Z,110.70
2017-11-23T19:47:35.437Z,108.37
2017-11-23T19:50:02.946Z,114.93
2017-11-23T19:52:30.429Z,111.57
2017-11-23T19:54:57.908Z,106.27
2017-11-23T19:57:25.474Z,119.77
2017-11-23T19:59:52.941Z,104.77
2017-11-23T20:02:20.493Z,99.67
2017-11-23T20:04:47.975Z,118.83
2017-11-23T20:07:15.574Z,101.30
2017-11-23T20:09:43.061Z,109.70
2017-11-23T20:12:10.563Z,102.07
2017-11-23T20:14:38.020Z,104.70
2017-11-23T20:17:05.533Z,100.20
2017-11-23T20:19:34.310Z,96.80
2017-11-23T20:22:01.801Z,102.77
2017-11-23T20:24:30.225Z,114.17
2017-11-23T20:26:57.801Z,110.13
2017-11-23T20:29:25.546Z,95.57
2017-11-23T20:31:53.268Z,100.03
2017-11-23T20:34:20.736Z,103.73
2017-11-23T20:36:50.113Z,103.37
2017-11-23T20:39:17.817Z,117.33
2017-11-23T20:41:45.340Z,103.00
2017-11-23T20:44:12.817Z,97.90
2017-11-23T20:46:40.307Z,112.67
2017-11-23T20:49:07.958Z,96.30
2017-11-23T20:51:35.428Z,99.53
2017-11-23T20:54:03.957Z,122.00
2017-11-23T20:56:32.903Z,105.67
2017-11-23T20:59:00.440Z,112.30
2017-11-23T21:01:28.121Z,104.33
2017-11-23T21:03:55.645Z,98.77
2017-11-23T21:06:23.704Z,95.33
2017-11-23T21:08:51.263Z,95.80
2017-11-23T21:11:18.755Z,81.90
2017-11-23T21:13:47.339Z,89.80
2017-11-23T21:16:16.887Z,89.60
2017-11-23T21:18:44.752Z,96.50
2017-11-23T21:21:12.282Z,98.47
2017-11-23T21:23:39.808Z,93.10
2017-11-23T21:26:07.332Z,95.27
2017-11-23T21:28:37.159Z,92.93
2017-11-23T21:31:04.749Z,100.23
2017-11-23T21:33:32.347Z,100.93
2017-11-23T21:35:59.889Z,102.53
2017-11-23T21:38:27.771Z,108.80
2017-11-23T21:40:55.477Z,107.87
2017-11-23T21:43:22.980Z,93.27
2017-11-23T21:45:50.475Z,95.37
2017-11-23T21:48:18.052Z,97.00
2017-11-23T21:50:45.625Z,89.33
2017-11-23T21:53:13.149Z,92.43
2017-11-23T21:55:40.674Z,93.53
2017-11-23T21:58:08.198Z,89.67
2017-11-23T22:00:35.670Z,92.17
2017-11-23T22:03:03.129Z,94.83
2017-11-23T22:05:30.605Z,95.77
2017-11-23T22:07:58.384Z,97.43
2017-11-23T22:10:25.862Z,90.57
2017-11-23T22:12:54.405Z,95.30
2017-11-23T22:15:21.869Z,96.67
2017-11-23T22:17:49.330Z,102.27
2017-11-23T22:20:17.098Z,98.37
2017-11-23T22:22:44.553Z,102.60
2017-11-23T22:25:12.019Z,90.80
2017-11-23T22:27:39.505Z,104.43
2017-11-23T22:30:06.970Z,92.73
2017-11-23T22:32:35.959Z,96.53
2017-11-23T22:35:03.401Z,87.47
2017-11-23T22:37:30.860Z,99.80
2017-11-23T22:39:58.341Z,89.77
2017-11-23T22:42:25.843Z,99.00
2017-11-23T22:44:53.385Z,88.70
2017-11-23T22:47:20.922Z,82.53
2017-11-23T22:49:48.401Z,92.73
2017-11-23T22:52:17.046Z,102.23
2017-11-23T22:54:44.567Z,102.70
2017-11-23T22:57:12.125Z,100.47
2017-11-23T22:59:39.693Z,91.37
2017-11-23T23:02:07.207Z,87.30
2017-11-23T23:04:34.781Z,86.10
2017-11-23T23:07:02.365Z,92.87
2017-11-23T23:09:29.933Z,93.20
2017-11-23T23:11:57.455Z,87.07
2017-11-23T23:14:24.929Z,86.47
2017-11-23T23:16:52.384Z,97.43
2017-11-23T23:19:19.896Z,94.27
2017-11-23T23:21:47.374Z,81.70
2017-11-23T23:24:14.854Z,91.27
2017-11-23T23:26:42.349Z,86.37
2017-11-23T23:29:09.891Z,80.07
2017-11-23T23:31:38.322Z,84.43
2017-11-23T23:34:05.782Z,88.30
2017-11-23T23:36:33.257Z,91.33
2017-11-23T23:39:00.763Z,82.40
2017-11-23T23:41:28.221Z,78.33
2017-11-23T23:43:55.682Z,88.87
2017-11-23T23:46:23.185Z,83.87
2017-11-23T23:48:50.661Z,89.23
2017-11-23T23:51:19.749Z,92.77
2017-11-23T23:53:47.256Z,98.30
2017-11-23T23:56:14.708Z,85.43
2017-11-23T23:58:42.196Z,87.03
